Coral Sapphire — 3EFA5 — position and weather

sailwx.info

Track history (hours):
 
Tides and Currents Weather Stations Pressure Air Temp Water Temp Dewpoint Dewpoint Depression Visibility Wind Speed Wind Dir Waves Ship Positions

Coral Sapphire

Last reported at 2017-Nov-20 00:30 UTC. Time now 2017-Nov-22 18:37 UTC.
Position N 33°50' W 118°46'.

Length 225 m; draft 14.1 m.

Type: Cargo ship. MMSI: 371979000.

Date/timePositionNaut miles runAvg speedWind from/ knotsBaromVisibWave heightAir tempDewpointWater temp
2017-Nov-20 00:30N 33°50' W 118°46'510.2
2017-Nov-20 00:01N 33°48' W 118°41'510.1
2017-Nov-19 23:30N 33°45' W 118°35'510.0
2017-Nov-19 23:00N 33°43' W 118°30'5 9.9
2017-Nov-19 22:30N 33°40' W 118°25'5 9.5
2017-Nov-19 21:57N 33°38' W 118°19'4 8.7
2017-Nov-19 21:30N 33°39' W 118°15'4 7.7
2017-Nov-19 21:00N 33°42' W 118°12'3 5.5
2017-Nov-19 20:30N 33°44' W 118°12'1 1.4
2017-Nov-19 19:57N 33°45' W 118°12'0 0.0
2017-Nov-19 19:27N 33°45' W 118°12'0 0.0
2017-Nov-19 16:15N 33°45' W 118°12'0 0.0
2017-Nov-19 01:15N 33°45' W 118°12'0 0.0
2017-Nov-19 00:57N 33°45' W 118°12'0 0.0
2017-Nov-19 00:27N 33°45' W 118°12'0 0.0
2017-Nov-18 23:39N 33°45' W 118°12'0 0.0
2017-Nov-18 23:21N 33°45' W 118°12'  
2017-Nov-16 13:21N 33°45' W 118°12'0 0.0
2017-Nov-16 12:15N 33°45' W 118°12'0 0.0
2017-Nov-16 11:45N 33°45' W 118°12'0 0.0
2017-Nov-15 14:31N 33°45' W 118°12'0 0.3
2017-Nov-15 14:00N 33°45' W 118°12'0 0.0
2017-Nov-15 13:30N 33°45' W 118°12'0 0.0
2017-Nov-15 10:18N 33°45' W 118°12'0 0.0
2017-Nov-15 07:09N 33°45' W 118°12'0 0.0
2017-Nov-15 06:58N 33°45' W 118°12'0 0.0
2017-Nov-15 06:16N 33°45' W 118°12'0 0.0
2017-Nov-14 17:15N 33°45' W 118°12'0 0.0
2017-Nov-14 15:33N 33°45' W 118°12'0 0.0
2017-Nov-14 12:51N 33°45' W 118°12'0 0.0
2017-Nov-14 12:24N 33°45' W 118°12'0 0.0
2017-Nov-14 12:00N 33°45' W 118°12'0 0.0
2017-Nov-14 08:33N 33°45' W 118°12'0 0.0
2017-Nov-14 08:30N 33°45' W 118°12'0 0.0
2017-Nov-14 04:42N 33°45' W 118°12'0 0.0
2017-Nov-14 04:24N 33°45' W 118°12'0 0.0
2017-Nov-14 04:00N 33°45' W 118°12'0 0.0
2017-Nov-14 03:30N 33°45' W 118°12'0 0.0
2017-Nov-14 02:12N 33°45' W 118°12'0 0.0
2017-Nov-14 01:57N 33°45' W 118°12'0 0.0
2017-Nov-14 01:30N 33°45' W 118°12'0 0.0
2017-Nov-14 00:12N 33°45' W 118°12'0 0.0
2017-Nov-13 23:57N 33°45' W 118°12'0 0.0
2017-Nov-13 23:30N 33°45' W 118°12'0 0.0
2017-Nov-13 22:54N 33°45' W 118°12'0 0.0
2017-Nov-13 22:24N 33°45' W 118°12'0 0.0
2017-Nov-13 21:54N 33°45' W 118°12'4 0.2
2017-Nov-13 01:57N 33°42' W 118°09'0 0.1
2017-Nov-13 01:30N 33°42' W 118°09'0 0.0
2017-Nov-13 00:57N 33°42' W 118°09'0 0.0
2017-Nov-13 00:27N 33°42' W 118°09'0 0.0
2017-Nov-12 23:57N 33°42' W 118°09'0 0.0
2017-Nov-12 23:27N 33°42' W 118°09'0 0.0
2017-Nov-12 23:00N 33°42' W 118°09'0 0.0
2017-Nov-12 22:30N 33°42' W 118°09'0 0.0
2017-Nov-12 21:51N 33°42' W 118°09'0 0.0
2017-Nov-12 21:30N 33°42' W 118°09'0 0.0
2017-Nov-12 20:57N 33°42' W 118°09'0 0.0
2017-Nov-12 19:33N 33°42' W 118°09'0 0.0
2017-Nov-12 19:21N 33°42' W 118°09'0 0.1
2017-Nov-12 18:57N 33°42' W 118°09'0 0.1
2017-Nov-12 18:27N 33°42' W 118°09'0 0.0
2017-Nov-12 17:57N 33°42' W 118°09'0 0.1
2017-Nov-12 17:27N 33°42' W 118°09'0 0.1
2017-Nov-12 17:00N 33°42' W 118°09'0 0.1
2017-Nov-12 16:27N 33°42' W 118°09'0 0.0
2017-Nov-12 15:57N 33°42' W 118°09'0 0.2
2017-Nov-12 15:30N 33°42' W 118°09'0 0.1
2017-Nov-12 14:57N 33°42' W 118°09'0 0.1
2017-Nov-12 14:30N 33°42' W 118°09'0 0.0
2017-Nov-12 13:57N 33°42' W 118°09'0 0.0
2017-Nov-12 13:27N 33°42' W 118°09'0 0.0
2017-Nov-12 13:00N 33°42' W 118°09'0 0.0
2017-Nov-12 12:30N 33°42' W 118°09'0 0.0
2017-Nov-12 12:00N 33°42' W 118°09'0 0.0
2017-Nov-12 11:27N 33°42' W 118°09'0 0.0
2017-Nov-12 10:57N 33°42' W 118°09'0 0.0
2017-Nov-12 10:27N 33°42' W 118°09'0 0.0
2017-Nov-12 09:57N 33°42' W 118°09'0 0.1
2017-Nov-12 09:30N 33°42' W 118°09'0 0.1
2017-Nov-12 09:00N 33°42' W 118°09'0 0.1
2017-Nov-12 08:21N 33°42' W 118°09'0 0.0
2017-Nov-12 07:57N 33°42' W 118°09'0 0.0
2017-Nov-12 07:21N 33°42' W 118°09'0 0.0
2017-Nov-12 06:57N 33°42' W 118°09'0 0.0
2017-Nov-12 06:30N 33°42' W 118°09'0 0.0
2017-Nov-12 05:54N 33°42' W 118°09'0 0.1
2017-Nov-12 05:30N 33°42' W 118°08'0 0.0
2017-Nov-12 04:54N 33°42' W 118°08'0 0.0
2017-Nov-12 04:30N 33°42' W 118°08'0 0.0
2017-Nov-12 03:57N 33°42' W 118°08'0 0.0
2017-Nov-12 03:30N 33°42' W 118°08'0 0.0
2017-Nov-12 02:54N 33°42' W 118°08'0 0.0
2017-Nov-12 02:30N 33°42' W 118°08'0 0.0
2017-Nov-12 01:39N 33°42' W 118°08'0 0.0
2017-Nov-12 01:30N 33°42' W 118°08'0 0.0
2017-Nov-12 00:57N 33°42' W 118°08'0 0.0
2017-Nov-12 00:27N 33°42' W 118°08'0 0.1
2017-Nov-11 23:48N 33°42' W 118°09'0 0.1
2017-Nov-11 23:12N 33°42' W 118°08'0 0.2
2017-Nov-11 22:54N 33°42' W 118°09'0 0.0
2017-Nov-11 22:27N 33°42' W 118°09'0 0.0
2017-Nov-11 12:18N 33°42' W 118°09'0 0.0
2017-Nov-11 11:54N 33°42' W 118°09'0 0.0
2017-Nov-10 17:12N 33°42' W 118°09'0 0.0
2017-Nov-10 16:54N 33°42' W 118°09'0 0.0
2017-Nov-10 16:27N 33°42' W 118°09'0 0.0
2017-Nov-10 13:21N 33°42' W 118°09'0 0.0
2017-Nov-10 11:09N 33°42' W 118°08'  
Track history (hours):
 
Tides and Currents Weather Stations Pressure Air Temp Water Temp Dewpoint Dewpoint Depression Visibility Wind Speed Wind Dir Waves Ship Positions

Coral Sapphire

Last reported at 2017-Nov-20 00:30 UTC. Time now 2017-Nov-22 18:37 UTC.
Position N 33°50' W 118°46'.

Length 225 m; draft 14.1 m.

Type: Cargo ship. MMSI: 371979000.

Date/timePositionNaut miles runAvg speedWind from/ knotsBaromVisibWave heightAir tempDewpointWater temp
2017-Nov-20 00:30N 33°50' W 118°46'510.2
2017-Nov-20 00:01N 33°48' W 118°41'510.1
2017-Nov-19 23:30N 33°45' W 118°35'510.0
2017-Nov-19 23:00N 33°43' W 118°30'5 9.9
2017-Nov-19 22:30N 33°40' W 118°25'5 9.5
2017-Nov-19 21:57N 33°38' W 118°19'4 8.7
2017-Nov-19 21:30N 33°39' W 118°15'4 7.7
2017-Nov-19 21:00N 33°42' W 118°12'3 5.5
2017-Nov-19 20:30N 33°44' W 118°12'1 1.4
2017-Nov-19 19:57N 33°45' W 118°12'0 0.0
2017-Nov-19 19:27N 33°45' W 118°12'0 0.0
2017-Nov-19 16:15N 33°45' W 118°12'0 0.0
2017-Nov-19 01:15N 33°45' W 118°12'0 0.0
2017-Nov-19 00:57N 33°45' W 118°12'0 0.0
2017-Nov-19 00:27N 33°45' W 118°12'0 0.0
2017-Nov-18 23:39N 33°45' W 118°12'0 0.0
2017-Nov-18 23:21N 33°45' W 118°12'  
2017-Nov-16 13:21N 33°45' W 118°12'0 0.0
2017-Nov-16 12:15N 33°45' W 118°12'0 0.0
2017-Nov-16 11:45N 33°45' W 118°12'0 0.0
2017-Nov-15 14:31N 33°45' W 118°12'0 0.3
2017-Nov-15 14:00N 33°45' W 118°12'0 0.0
2017-Nov-15 13:30N 33°45' W 118°12'0 0.0
2017-Nov-15 10:18N 33°45' W 118°12'0 0.0
2017-Nov-15 07:09N 33°45' W 118°12'0 0.0
2017-Nov-15 06:58N 33°45' W 118°12'0 0.0
2017-Nov-15 06:16N 33°45' W 118°12'0 0.0
2017-Nov-14 17:15N 33°45' W 118°12'0 0.0
2017-Nov-14 15:33N 33°45' W 118°12'0 0.0
2017-Nov-14 12:51N 33°45' W 118°12'0 0.0
2017-Nov-14 12:24N 33°45' W 118°12'0 0.0
2017-Nov-14 12:00N 33°45' W 118°12'0 0.0
2017-Nov-14 08:33N 33°45' W 118°12'0 0.0
2017-Nov-14 08:30N 33°45' W 118°12'0 0.0
2017-Nov-14 04:42N 33°45' W 118°12'0 0.0
2017-Nov-14 04:24N 33°45' W 118°12'0 0.0
2017-Nov-14 04:00N 33°45' W 118°12'0 0.0
2017-Nov-14 03:30N 33°45' W 118°12'0 0.0
2017-Nov-14 02:12N 33°45' W 118°12'0 0.0
2017-Nov-14 01:57N 33°45' W 118°12'0 0.0
2017-Nov-14 01:30N 33°45' W 118°12'0 0.0
2017-Nov-14 00:12N 33°45' W 118°12'0 0.0
2017-Nov-13 23:57N 33°45' W 118°12'0 0.0
2017-Nov-13 23:30N 33°45' W 118°12'0 0.0
2017-Nov-13 22:54N 33°45' W 118°12'0 0.0
2017-Nov-13 22:24N 33°45' W 118°12'0 0.0
2017-Nov-13 21:54N 33°45' W 118°12'4 0.2
2017-Nov-13 01:57N 33°42' W 118°09'0 0.1
2017-Nov-13 01:30N 33°42' W 118°09'0 0.0
2017-Nov-13 00:57N 33°42' W 118°09'0 0.0
2017-Nov-13 00:27N 33°42' W 118°09'0 0.0
2017-Nov-12 23:57N 33°42' W 118°09'0 0.0
2017-Nov-12 23:27N 33°42' W 118°09'0 0.0
2017-Nov-12 23:00N 33°42' W 118°09'0 0.0
2017-Nov-12 22:30N 33°42' W 118°09'0 0.0
2017-Nov-12 21:51N 33°42' W 118°09'0 0.0
2017-Nov-12 21:30N 33°42' W 118°09'0 0.0
2017-Nov-12 20:57N 33°42' W 118°09'0 0.0
2017-Nov-12 19:33N 33°42' W 118°09'0 0.0
2017-Nov-12 19:21N 33°42' W 118°09'0 0.1
2017-Nov-12 18:57N 33°42' W 118°09'0 0.1
2017-Nov-12 18:27N 33°42' W 118°09'0 0.0
2017-Nov-12 17:57N 33°42' W 118°09'0 0.1
2017-Nov-12 17:27N 33°42' W 118°09'0 0.1
2017-Nov-12 17:00N 33°42' W 118°09'0 0.1
2017-Nov-12 16:27N 33°42' W 118°09'0 0.0
2017-Nov-12 15:57N 33°42' W 118°09'0 0.2
2017-Nov-12 15:30N 33°42' W 118°09'0 0.1
2017-Nov-12 14:57N 33°42' W 118°09'0 0.1
2017-Nov-12 14:30N 33°42' W 118°09'0 0.0
2017-Nov-12 13:57N 33°42' W 118°09'0 0.0
2017-Nov-12 13:27N 33°42' W 118°09'0 0.0
2017-Nov-12 13:00N 33°42' W 118°09'0 0.0
2017-Nov-12 12:30N 33°42' W 118°09'0 0.0
2017-Nov-12 12:00N 33°42' W 118°09'0 0.0
2017-Nov-12 11:27N 33°42' W 118°09'0 0.0
2017-Nov-12 10:57N 33°42' W 118°09'0 0.0
2017-Nov-12 10:27N 33°42' W 118°09'0 0.0
2017-Nov-12 09:57N 33°42' W 118°09'0 0.1
2017-Nov-12 09:30N 33°42' W 118°09'0 0.1
2017-Nov-12 09:00N 33°42' W 118°09'0 0.1
2017-Nov-12 08:21N 33°42' W 118°09'0 0.0
2017-Nov-12 07:57N 33°42' W 118°09'0 0.0
2017-Nov-12 07:21N 33°42' W 118°09'0 0.0
2017-Nov-12 06:57N 33°42' W 118°09'0 0.0
2017-Nov-12 06:30N 33°42' W 118°09'0 0.0
2017-Nov-12 05:54N 33°42' W 118°09'0 0.1
2017-Nov-12 05:30N 33°42' W 118°08'0 0.0
2017-Nov-12 04:54N 33°42' W 118°08'0 0.0
2017-Nov-12 04:30N 33°42' W 118°08'0 0.0
2017-Nov-12 03:57N 33°42' W 118°08'0 0.0
2017-Nov-12 03:30N 33°42' W 118°08'0 0.0
2017-Nov-12 02:54N 33°42' W 118°08'0 0.0
2017-Nov-12 02:30N 33°42' W 118°08'0 0.0
2017-Nov-12 01:39N 33°42' W 118°08'0 0.0
2017-Nov-12 01:30N 33°42' W 118°08'0 0.0
2017-Nov-12 00:57N 33°42' W 118°08'0 0.0
2017-Nov-12 00:27N 33°42' W 118°08'0 0.1
2017-Nov-11 23:48N 33°42' W 118°09'0 0.1
2017-Nov-11 23:12N 33°42' W 118°08'0 0.2
2017-Nov-11 22:54N 33°42' W 118°09'0 0.0
2017-Nov-11 22:27N 33°42' W 118°09'0 0.0
2017-Nov-11 12:18N 33°42' W 118°09'0 0.0
2017-Nov-11 11:54N 33°42' W 118°09'0 0.0
2017-Nov-10 17:12N 33°42' W 118°09'0 0.0
2017-Nov-10 16:54N 33°42' W 118°09'0 0.0
2017-Nov-10 16:27N 33°42' W 118°09'0 0.0
2017-Nov-10 13:21N 33°42' W 118°09'0 0.0
2017-Nov-10 11:09N 33°42' W 118°08'  

Dump ship's entire track history